createdAt,value
2022-10-06T00:02:06.397Z,101377.44
2022-10-06T00:05:09.037Z,101376.47
2022-10-06T00:08:11.800Z,101387.53
2022-10-06T00:11:15.523Z,101386.13
2022-10-06T00:14:18.041Z,101385.56
2022-10-06T00:17:20.569Z,101377.13
2022-10-06T00:20:25.706Z,101381.81
2022-10-06T00:23:29.178Z,101386.37
2022-10-06T00:26:31.738Z,101386.06
2022-10-06T00:29:34.464Z,101389.66
2022-10-06T00:32:37.941Z,101380.62
2022-10-06T00:35:40.441Z,101387.81
2022-10-06T00:38:43.323Z,101375.91
2022-10-06T00:41:45.884Z,101378.41
2022-10-06T00:44:49.827Z,101384.12
2022-10-06T00:47:53.672Z,101386.19
2022-10-06T00:50:57.431Z,101380.50
2022-10-06T00:54:01.088Z,101383.38
2022-10-06T00:57:05.535Z,101382.69
2022-10-06T01:00:09.413Z,101392.50
2022-10-06T01:03:16.118Z,101386.78
2022-10-06T01:06:18.665Z,101387.88
2022-10-06T01:09:22.352Z,101391.84
2022-10-06T01:12:26.708Z,101390.19
2022-10-06T01:15:29.419Z,101390.56
2022-10-06T01:18:32.397Z,101393.59
2022-10-06T01:21:39.380Z,101398.25
2022-10-06T01:24:42.265Z,101403.63
2022-10-06T01:27:50.904Z,101402.06
2022-10-06T01:30:54.855Z,101399.56
2022-10-06T01:33:58.026Z,101413.78
2022-10-06T01:37:00.515Z,101420.37
2022-10-06T01:40:03.303Z,101428.62
2022-10-06T01:43:05.903Z,101416.59
2022-10-06T01:46:08.489Z,101427.22
2022-10-06T01:49:11.036Z,101437.13
2022-10-06T01:52:13.617Z,101435.59
2022-10-06T01:55:17.443Z,101441.22
2022-10-06T01:58:20.248Z,101434.28
2022-10-06T02:01:22.881Z,101432.88
2022-10-06T02:04:25.539Z,101430.63
2022-10-06T02:07:28.477Z,101435.53
2022-10-06T02:10:31.495Z,101435.62
2022-10-06T02:13:34.171Z,101450.53
2022-10-06T02:16:36.699Z,101447.44
2022-10-06T02:19:39.298Z,101449.00
2022-10-06T02:22:43.880Z,101454.84
2022-10-06T02:25:46.401Z,101443.41
2022-10-06T02:28:50.239Z,101453.78
2022-10-06T02:31:52.828Z,101453.19
2022-10-06T02:34:55.871Z,101450.34
2022-10-06T02:37:58.497Z,101442.94
2022-10-06T02:41:02.257Z,101443.56
2022-10-06T02:44:05.344Z,101440.09
2022-10-06T02:47:14.371Z,101449.63
2022-10-06T02:50:17.117Z,101438.69
2022-10-06T02:53:20.049Z,101439.75
2022-10-06T02:56:24.383Z,101436.53
2022-10-06T02:59:27.783Z,101432.47
2022-10-06T03:02:31.131Z,101433.78
2022-10-06T03:05:33.743Z,101450.09
2022-10-06T03:08:36.297Z,101448.06
2022-10-06T03:11:40.969Z,101436.75
2022-10-06T03:14:43.480Z,101452.47
2022-10-06T03:17:49.523Z,101445.66
2022-10-06T03:20:54.175Z,101440.66
2022-10-06T03:23:57.825Z,101451.38
2022-10-06T03:27:00.367Z,101448.88
2022-10-06T03:30:03.699Z,101437.53
2022-10-06T03:33:06.895Z,101427.38
2022-10-06T03:36:17.491Z,101432.75
2022-10-06T03:39:20.042Z,101427.19
2022-10-06T03:42:22.691Z,101427.63
2022-10-06T03:45:25.284Z,101431.19
2022-10-06T03:48:33.523Z,101428.47
2022-10-06T03:51:41.024Z,101427.84
2022-10-06T03:54:43.544Z,101432.63
2022-10-06T03:57:46.054Z,101430.94
2022-10-06T04:00:48.591Z,101422.50
2022-10-06T04:03:51.978Z,101431.28
2022-10-06T04:06:54.613Z,101432.84
2022-10-06T04:09:57.203Z,101432.34
2022-10-06T04:12:59.824Z,101430.56
2022-10-06T04:16:17.586Z,101437.72
2022-10-06T04:19:20.301Z,101442.34
2022-10-06T04:22:22.857Z,101443.19
2022-10-06T04:25:25.377Z,101437.47
2022-10-06T04:28:28.248Z,101442.69
2022-10-06T04:31:33.769Z,101446.25
2022-10-06T04:34:36.364Z,101448.03
2022-10-06T04:37:39.609Z,101455.28
2022-10-06T04:40:42.153Z,101458.03
2022-10-06T04:43:48.811Z,101465.75
2022-10-06T04:46:51.395Z,101460.75
2022-10-06T04:49:53.953Z,101466.81
2022-10-06T04:52:57.224Z,101463.25
2022-10-06T04:56:12.167Z,101463.03
2022-10-06T04:59:14.996Z,101462.56
2022-10-06T05:02:17.736Z,101471.37
2022-10-06T05:05:20.378Z,101472.81
2022-10-06T05:08:22.906Z,101474.97
2022-10-06T05:11:26.304Z,101469.03
2022-10-06T05:14:28.888Z,101471.72
2022-10-06T05:17:31.399Z,101473.87
2022-10-06T05:20:36.454Z,101484.34
2022-10-06T05:23:41.285Z,101485.59
2022-10-06T05:26:43.933Z,101495.38
2022-10-06T05:29:47.565Z,101498.00
2022-10-06T05:32:50.699Z,101501.25
2022-10-06T05:36:04.196Z,101506.84
2022-10-06T05:39:07.304Z,101501.94
2022-10-06T05:42:09.920Z,101504.06
2022-10-06T05:45:12.511Z,101516.53
2022-10-06T05:48:15.093Z,101506.00
2022-10-06T05:51:19.334Z,101512.44
2022-10-06T05:54:21.899Z,101522.97
2022-10-06T05:57:24.442Z,101521.31
2022-10-06T06:00:27.101Z,101530.28
2022-10-06T06:03:29.750Z,101529.13
2022-10-06T06:06:34.918Z,101534.87
2022-10-06T06:09:37.885Z,101537.88
2022-10-06T06:12:40.438Z,101545.00
2022-10-06T06:16:01.257Z,101551.28
2022-10-06T06:19:04.031Z,101563.00
2022-10-06T06:22:06.606Z,101567.31
2022-10-06T06:25:09.623Z,101577.31
2022-10-06T06:28:12.176Z,101585.81
2022-10-06T06:31:30.028Z,101577.62
2022-10-06T06:34:32.584Z,101586.91
2022-10-06T06:37:35.121Z,101591.94
2022-10-06T06:40:41.590Z,101593.56
2022-10-06T06:43:45.536Z,101600.34
2022-10-06T06:46:49.423Z,101608.81
2022-10-06T06:49:51.964Z,101610.34
2022-10-06T06:52:55.269Z,101613.50
2022-10-06T06:55:58.240Z,101619.87
2022-10-06T06:59:02.199Z,101611.75
2022-10-06T07:02:04.929Z,101620.31
2022-10-06T07:05:07.490Z,101626.97
2022-10-06T07:08:10.480Z,101626.91
2022-10-06T07:11:18.219Z,101624.59
2022-10-06T07:14:22.791Z,101631.06
2022-10-06T07:17:44.095Z,101633.34
2022-10-06T07:21:05.259Z,101632.59
2022-10-06T07:24:27.865Z,101635.84
2022-10-06T07:27:31.190Z,101631.44
2022-10-06T07:30:38.407Z,101629.59
2022-10-06T07:33:43.148Z,101638.94
2022-10-06T07:36:46.940Z,101636.22
2022-10-06T07:39:49.821Z,101641.13
2022-10-06T07:42:52.498Z,101635.41
2022-10-06T07:45:56.478Z,101642.38
2022-10-06T07:48:59.665Z,101642.06
2022-10-06T07:52:05.541Z,101648.59
2022-10-06T07:55:08.330Z,101656.78
2022-10-06T07:58:19.562Z,101652.06
2022-10-06T08:01:22.207Z,101662.03
2022-10-06T08:04:24.869Z,101665.03
2022-10-06T08:07:27.375Z,101659.56
2022-10-06T08:10:29.944Z,101659.41
2022-10-06T08:13:32.626Z,101665.22
2022-10-06T08:16:35.331Z,101662.72
2022-10-06T08:19:38.359Z,101676.16
2022-10-06T08:22:41.030Z,101671.72
2022-10-06T08:25:50.992Z,101673.41
2022-10-06T08:28:55.611Z,101680.38
2022-10-06T08:31:59.733Z,101682.22
2022-10-06T08:35:02.439Z,101687.53
2022-10-06T08:38:05.503Z,101687.06
2022-10-06T08:41:18.363Z,101694.34
2022-10-06T08:44:32.486Z,101696.34
2022-10-06T08:47:36.092Z,101699.16
2022-10-06T08:51:38.126Z,101706.66
2022-10-06T08:54:58.453Z,101704.31
2022-10-06T08:58:31.223Z,101708.25
2022-10-06T09:01:45.205Z,101708.75
2022-10-06T09:04:49.821Z,101693.91
2022-10-06T09:08:16.465Z,101692.16
2022-10-06T09:11:32.026Z,101695.22
2022-10-06T09:14:51.665Z,101697.66
2022-10-06T09:18:02.387Z,101702.59
2022-10-06T09:21:07.155Z,101699.56
2022-10-06T09:24:18.422Z,101694.78
2022-10-06T09:27:24.133Z,101698.03
2022-10-06T09:30:27.139Z,101695.56
2022-10-06T09:33:37.262Z,101690.22
2022-10-06T09:37:09.911Z,101696.97
2022-10-06T09:40:54.728Z,101692.75
2022-10-06T09:44:00.088Z,101693.31
2022-10-06T09:47:02.666Z,101697.94
2022-10-06T09:50:27.851Z,101710.56
2022-10-06T09:53:33.220Z,101695.72
2022-10-06T09:56:45.325Z,101704.22
2022-10-06T09:59:48.206Z,101705.97
2022-10-06T10:03:06.055Z,101702.41
2022-10-06T10:06:09.288Z,101698.44
2022-10-06T10:09:21.797Z,101704.50
2022-10-06T10:12:28.426Z,101704.25
2022-10-06T10:15:39.447Z,101696.59
2022-10-06T10:18:46.528Z,101710.38
2022-10-06T10:21:49.384Z,101704.81
2022-10-06T10:25:07.320Z,101707.00
2022-10-06T10:28:34.796Z,101696.06
2022-10-06T10:31:43.542Z,101709.41
2022-10-06T10:35:00.548Z,101707.87
2022-10-06T10:38:18.783Z,101707.38
2022-10-06T10:41:25.039Z,101700.66
2022-10-06T10:44:37.489Z,101693.41
2022-10-06T10:47:43.039Z,101697.56
2022-10-06T10:51:01.745Z,101697.00
2022-10-06T10:54:21.673Z,101698.78
2022-10-06T10:57:30.713Z,101690.44
2022-10-06T11:00:36.526Z,101685.72
2022-10-06T11:03:39.164Z,101685.28
2022-10-06T11:07:14.416Z,101683.81
2022-10-06T11:10:22.416Z,101677.19
2022-10-06T11:13:51.293Z,101671.66
2022-10-06T11:17:01.513Z,101671.09
2022-10-06T11:20:11.744Z,101679.50
2022-10-06T11:23:37.377Z,101678.50
2022-10-06T11:26:41.212Z,101671.75
2022-10-06T11:30:05.719Z,101672.47
2022-10-06T11:33:16.724Z,101669.41
2022-10-06T11:36:49.000Z,101664.72
2022-10-06T11:40:09.789Z,101669.66
2022-10-06T11:43:20.242Z,101672.62
2022-10-06T11:46:46.214Z,101665.25
2022-10-06T11:49:53.702Z,101671.03
2022-10-06T11:52:56.498Z,101664.50
2022-10-06T11:56:17.485Z,101678.34
2022-10-06T11:59:31.802Z,101667.44
2022-10-06T12:02:37.568Z,101668.03
2022-10-06T12:05:56.867Z,101670.78
2022-10-06T12:08:59.947Z,101665.94
2022-10-06T12:12:08.374Z,101663.22
2022-10-06T12:18:54.459Z,101661.47
2022-10-06T12:22:16.986Z,101651.50
2022-10-06T12:25:28.494Z,101653.72
2022-10-06T12:28:42.028Z,101648.59
2022-10-06T12:32:00.775Z,101645.09
2022-10-06T12:35:10.506Z,101648.56
2022-10-06T12:38:31.551Z,101636.06
2022-10-06T12:42:00.336Z,101636.75
2022-10-06T12:45:16.389Z,101637.88
2022-10-06T12:48:24.994Z,101629.72
2022-10-06T12:51:43.096Z,101632.63
2022-10-06T12:55:03.462Z,101634.13
2022-10-06T12:58:08.195Z,101629.63
2022-10-06T13:01:12.902Z,101635.72
2022-10-06T13:04:36.032Z,101632.16
2022-10-06T13:07:57.380Z,101636.00
2022-10-06T13:11:12.253Z,101631.88
2022-10-06T13:14:15.194Z,101632.59
2022-10-06T13:17:17.776Z,101625.12
2022-10-06T13:20:36.789Z,101630.03
2022-10-06T13:23:39.806Z,101632.41
2022-10-06T13:26:42.748Z,101634.13
2022-10-06T13:29:45.404Z,101637.06
2022-10-06T13:32:57.643Z,101639.31
2022-10-06T13:36:00.296Z,101645.22
2022-10-06T13:39:07.315Z,101640.13
2022-10-06T13:42:17.794Z,101637.28
2022-10-06T13:45:20.524Z,101636.56
2022-10-06T13:48:26.162Z,101630.50
2022-10-06T13:51:30.999Z,101629.97
2022-10-06T13:54:38.890Z,101644.78
2022-10-06T13:58:06.515Z,101640.66
2022-10-06T14:01:12.308Z,101644.56
2022-10-06T14:04:18.422Z,101641.94
2022-10-06T14:07:22.354Z,101650.19
2022-10-06T14:10:31.633Z,101649.75
2022-10-06T14:13:56.680Z,101658.69
2022-10-06T14:16:59.426Z,101651.41
2022-10-06T14:20:02.434Z,101655.56
2022-10-06T14:23:43.339Z,101660.75
2022-10-06T14:26:50.089Z,101649.97
2022-10-06T14:29:53.045Z,101646.72
2022-10-06T14:32:55.548Z,101649.25
2022-10-06T14:35:58.164Z,101647.28
2022-10-06T14:39:01.579Z,101649.59
2022-10-06T14:42:04.327Z,101648.69
2022-10-06T14:45:08.206Z,101644.25
2022-10-06T14:48:12.085Z,101645.25
2022-10-06T14:51:16.823Z,101640.19
2022-10-06T14:54:20.468Z,101639.81
2022-10-06T14:57:23.063Z,101640.69
2022-10-06T15:00:29.272Z,101644.47
2022-10-06T15:03:32.059Z,101638.84
2022-10-06T15:06:53.204Z,101647.56
2022-10-06T15:09:57.366Z,101644.13
2022-10-06T15:13:00.423Z,101644.88
2022-10-06T15:16:02.995Z,101640.44
2022-10-06T15:19:05.799Z,101651.81
2022-10-06T15:22:10.145Z,101651.69
2022-10-06T15:25:32.782Z,101650.41
2022-10-06T15:28:53.852Z,101649.75
2022-10-06T15:31:56.719Z,101652.00
2022-10-06T15:35:00.427Z,101648.06
2022-10-06T15:38:05.115Z,101642.16
2022-10-06T15:41:07.847Z,101649.88
2022-10-06T15:44:11.710Z,101653.59
2022-10-06T15:47:14.274Z,101650.22
2022-10-06T15:50:19.184Z,101649.91
2022-10-06T15:53:22.704Z,101661.31
2022-10-06T15:56:28.966Z,101658.19
2022-10-06T15:59:33.969Z,101654.22
2022-10-06T16:02:38.062Z,101651.25
2022-10-06T16:05:51.922Z,101655.84
2022-10-06T16:08:54.570Z,101659.81
2022-10-06T16:11:58.279Z,101666.09
2022-10-06T16:15:00.933Z,101675.88
2022-10-06T16:18:03.476Z,101670.69
2022-10-06T16:21:06.282Z,101675.56
2022-10-06T16:24:09.430Z,101675.78
2022-10-06T16:27:13.680Z,101672.50
2022-10-06T16:30:16.520Z,101678.16
2022-10-06T16:33:19.011Z,101690.06
2022-10-06T16:36:22.071Z,101695.75
2022-10-06T16:39:24.741Z,101689.94
2022-10-06T16:42:27.494Z,101704.03
2022-10-06T16:45:30.057Z,101709.62
2022-10-06T16:48:34.953Z,101706.97
2022-10-06T16:51:39.984Z,101711.72
2022-10-06T16:54:42.971Z,101709.16
2022-10-06T16:57:45.581Z,101718.09
2022-10-06T17:00:59.077Z,101714.19
2022-10-06T17:04:12.046Z,101716.03
2022-10-06T17:07:14.909Z,101710.25
2022-10-06T17:10:21.379Z,101716.31
2022-10-06T17:13:24.217Z,101716.53
2022-10-06T17:16:33.506Z,101726.50
2022-10-06T17:19:36.288Z,101723.56
2022-10-06T17:22:39.265Z,101726.06
2022-10-06T17:25:43.035Z,101724.75
2022-10-06T17:28:48.744Z,101730.91
2022-10-06T17:31:56.492Z,101729.22
2022-10-06T17:34:59.316Z,101732.22
2022-10-06T17:38:05.915Z,101720.94
2022-10-06T17:41:17.314Z,101730.53
2022-10-06T17:44:27.454Z,101731.87
2022-10-06T17:47:30.511Z,101733.66
2022-10-06T17:50:33.729Z,101729.84
2022-10-06T17:53:40.995Z,101729.34
2022-10-06T17:56:44.902Z,101731.31
2022-10-06T17:59:48.311Z,101724.66
2022-10-06T18:02:57.269Z,101725.25
2022-10-06T18:06:01.059Z,101716.97
2022-10-06T18:09:05.843Z,101714.97
2022-10-06T18:12:10.597Z,101716.44
2022-10-06T18:15:13.432Z,101714.25
2022-10-06T18:18:16.147Z,101719.38
2022-10-06T18:21:24.960Z,101714.72
2022-10-06T18:24:30.233Z,101718.84
2022-10-06T18:27:33.586Z,101716.28
2022-10-06T18:30:36.217Z,101720.22
2022-10-06T18:36:10.579Z,101720.19
2022-10-06T18:37:02.042Z,101717.47
2022-10-06T18:40:07.111Z,101726.53
2022-10-06T18:43:09.870Z,101734.81
2022-10-06T18:46:32.686Z,101739.34
2022-10-06T18:49:35.672Z,101740.78
2022-10-06T18:52:38.401Z,101735.13
2022-10-06T18:55:40.960Z,101734.75
2022-10-06T18:58:48.626Z,101735.37
2022-10-06T19:01:51.499Z,101737.66
2022-10-06T19:04:55.445Z,101735.78
2022-10-06T19:07:58.587Z,101737.38
2022-10-06T19:11:24.969Z,101736.31
2022-10-06T19:14:31.347Z,101741.22
2022-10-06T19:17:34.238Z,101747.19
2022-10-06T19:20:36.999Z,101746.38
2022-10-06T19:23:40.790Z,101743.50
2022-10-06T19:26:46.108Z,101737.81
2022-10-06T19:29:54.808Z,101749.16
2022-10-06T19:32:57.631Z,101745.25
2022-10-06T19:36:00.954Z,101744.31
2022-10-06T19:39:06.032Z,101740.16
2022-10-06T19:42:36.069Z,101746.88
2022-10-06T19:45:39.121Z,101746.91
2022-10-06T19:48:41.934Z,101750.84
2022-10-06T19:51:44.491Z,101746.44
2022-10-06T19:54:47.386Z,101751.31
2022-10-06T19:57:51.187Z,101750.75
2022-10-06T20:00:53.833Z,101765.25
2022-10-06T20:03:56.438Z,101760.41
2022-10-06T20:07:01.866Z,101761.81
2022-10-06T20:10:04.811Z,101768.50
2022-10-06T20:13:07.419Z,101771.72
2022-10-06T20:16:12.077Z,101776.59
2022-10-06T20:19:14.933Z,101778.16
2022-10-06T20:22:17.561Z,101779.41
2022-10-06T20:25:20.180Z,101773.00
2022-10-06T20:28:22.941Z,101779.00
2022-10-06T20:31:31.664Z,101785.41
2022-10-06T20:34:34.693Z,101777.62
2022-10-06T20:37:38.513Z,101778.59
2022-10-06T20:40:49.114Z,101782.34
2022-10-06T20:43:54.116Z,101775.56
2022-10-06T20:46:56.764Z,101781.41
2022-10-06T20:49:59.288Z,101778.34
2022-10-06T20:53:01.833Z,101775.84
2022-10-06T20:56:05.830Z,101778.03
2022-10-06T20:59:11.546Z,101776.78
2022-10-06T21:02:14.105Z,101772.47
2022-10-06T21:05:16.917Z,101773.03
2022-10-06T21:08:19.433Z,101779.00
2022-10-06T21:11:23.856Z,101779.81
2022-10-06T21:14:26.435Z,101778.28
2022-10-06T21:17:29.009Z,101778.41
2022-10-06T21:20:31.589Z,101770.06
2022-10-06T21:23:40.068Z,101770.06
2022-10-06T21:26:42.846Z,101770.75
2022-10-06T21:29:45.507Z,101769.09
2022-10-06T21:32:48.134Z,101773.81
2022-10-06T21:36:01.076Z,101765.19
2022-10-06T21:39:07.065Z,101771.53
2022-10-06T21:42:09.767Z,101772.66
2022-10-06T21:45:12.405Z,101767.66
2022-10-06T21:48:15.250Z,101765.41
2022-10-06T21:51:18.095Z,101768.34
2022-10-06T21:54:22.046Z,101763.19
2022-10-06T21:57:24.543Z,101766.22
2022-10-06T22:00:27.120Z,101760.13
2022-10-06T22:03:29.627Z,101769.28
2022-10-06T22:06:34.341Z,101763.16
2022-10-06T22:09:36.822Z,101766.22
2022-10-06T22:12:39.368Z,101758.13
2022-10-06T22:15:41.908Z,101755.50
2022-10-06T22:18:45.195Z,101764.78
2022-10-06T22:21:48.739Z,101768.94
2022-10-06T22:24:51.404Z,101763.47
2022-10-06T22:27:53.958Z,101764.59
2022-10-06T22:31:08.089Z,101761.38
2022-10-06T22:34:12.970Z,101759.00
2022-10-06T22:37:15.550Z,101756.50
2022-10-06T22:40:18.067Z,101754.97
2022-10-06T22:43:20.665Z,101755.50
2022-10-06T22:46:24.904Z,101753.53
2022-10-06T22:49:27.867Z,101748.13
2022-10-06T22:52:30.425Z,101754.50
2022-10-06T22:55:33.119Z,101746.28
2022-10-06T22:58:35.817Z,101748.91
2022-10-06T23:01:38.432Z,101762.22
2022-10-06T23:04:40.977Z,101759.03
2022-10-06T23:07:43.853Z,101745.72
2022-10-06T23:10:46.585Z,101757.91
2022-10-06T23:13:50.763Z,101754.72
2022-10-06T23:16:53.420Z,101755.22
2022-10-06T23:19:56.078Z,101745.41
2022-10-06T23:22:58.585Z,101747.22
2022-10-06T23:26:09.731Z,101741.22
2022-10-06T23:29:12.430Z,101738.56
2022-10-06T23:32:15.017Z,101738.97
2022-10-06T23:35:17.584Z,101747.00
2022-10-06T23:38:20.192Z,101747.12
2022-10-06T23:41:22.800Z,101746.81
2022-10-06T23:44:25.486Z,101740.28
2022-10-06T23:47:28.051Z,101751.50
2022-10-06T23:50:33.506Z,101746.63
2022-10-06T23:53:36.527Z,101741.50
2022-10-06T23:56:39.109Z,101746.06
2022-10-06T23:59:41.912Z,101747.00
